Time;durP1;ratioP1;P1;durP2;ratioP2;P2;SDS_P1;SDS_P2;PMS_P1;PMS_P2;Temp;Humidity;BMP_temperature;BMP_pressure;BME280_temperature;BME280_humidity;BME280_pressure;Samples;Min_cycle;Max_cycle;Signal;HPM_P1;HPM_P2
2022/07/12 00:06:59;;;;;;;3.08;1.37;;;;;;;16.35;50.74;100899.34;18563914;32;20111;-55
2022/07/12 00:17:04;;;;;;;2.20;0.90;;;;;;;16.27;51.16;100899.50;18564820;32;20126;-55
2022/07/12 00:27:08;;;;;;;1.33;1.20;;;;;;;15.76;52.29;100902.94;18563540;32;20096;-55
2022/07/12 00:37:11;;;;;;;1.90;1.10;;;;;;;15.45;53.27;100879.72;18563109;32;20116;-55
2022/07/12 00:47:27;;;;;;;1.37;0.88;;;;;;;15.42;53.29;100885.91;18562097;32;20377;-55
2022/07/12 00:57:30;;;;;;;2.00;1.10;;;;;;;15.36;53.24;100893.88;18562947;32;20093;-54
2022/07/12 01:07:36;;;;;;;1.30;1.05;;;;;;;15.25;54.00;100900.16;18562168;32;20103;-55
2022/07/12 01:17:39;;;;;;;4.60;1.20;;;;;;;15.10;53.92;100911.75;18561988;32;20087;-55
2022/07/12 01:27:44;;;;;;;2.50;1.20;;;;;;;15.10;54.20;100906.50;18561471;32;20451;-55
2022/07/12 01:37:47;;;;;;;2.45;1.20;;;;;;;15.04;54.69;100898.69;18561189;32;20115;-54
2022/07/12 01:47:52;;;;;;;4.47;1.25;;;;;;;14.90;55.02;100892.75;18560737;32;20101;-55
2022/07/12 01:57:56;;;;;;;1.83;1.10;;;;;;;14.77;55.08;100887.63;18544681;32;20092;-54
2022/07/12 02:08:00;;;;;;;2.65;1.30;;;;;;;14.67;55.23;100892.09;18561001;32;20092;-54
2022/07/12 02:18:04;;;;;;;2.40;1.35;;;;;;;14.50;55.91;100894.03;18558917;32;20116;-55
2022/07/12 02:28:08;;;;;;;2.55;1.10;;;;;;;14.48;56.03;100880.91;18558602;32;20145;-54
2022/07/12 02:38:11;;;;;;;2.33;1.10;;;;;;;14.29;56.65;100875.84;18557420;32;20103;-55
2022/07/12 02:48:16;;;;;;;2.08;1.17;;;;;;;14.50;56.24;100886.16;18557056;32;20092;-54
2022/07/12 02:58:19;;;;;;;2.85;1.30;;;;;;;14.32;57.30;100884.56;18556562;32;20092;-54
2022/07/12 03:08:24;;;;;;;2.15;1.20;;;;;;;13.73;60.06;100885.97;18561644;32;20088;-54
2022/07/12 03:18:27;;;;;;;3.72;1.40;;;;;;;14.23;58.79;100889.06;18565529;32;20100;-55
2022/07/12 03:28:32;;;;;;;4.35;1.40;;;;;;;14.47;58.02;100900.19;18565085;32;20151;-54
2022/07/12 03:38:36;;;;;;;1.87;1.23;;;;;;;14.43;57.92;100904.59;18564999;32;20100;-54
2022/07/12 04:03:43;;;;;;;1.17;1.02;;;;;;;15.78;57.19;100906.41;18736808;31;154413;-55
2022/07/12 04:13:46;;;;;;;1.00;0.90;;;;;;;15.78;57.19;100906.41;18677498;31;20110;-55
2022/07/12 04:23:51;;;;;;;3.28;1.00;;;;;;;16.11;55.98;100903.28;18675423;31;20717;-55
2022/07/12 04:33:54;;;;;;;4.22;0.85;;;;;;;16.91;54.49;100908.81;18675726;31;20084;-55
2022/07/12 04:43:59;;;;;;;1.45;0.70;;;;;;;17.79;51.12;100900.75;18675179;31;20162;-55
2022/07/12 04:54:02;;;;;;;1.17;0.60;;;;;;;19.80;44.88;100903.94;18671342;31;20114;-58
2022/07/12 05:04:07;;;;;;;1.30;0.60;;;;;;;20.75;41.46;100905.13;18364281;32;20108;-55
2022/07/12 05:14:10;;;;;;;1.40;0.57;;;;;;;21.75;39.29;100902.22;18361383;32;20105;-55
2022/07/12 05:24:14;;;;;;;0.50;0.50;;;;;;;22.23;38.43;100900.25;18359026;32;20105;-55
2022/07/12 05:34:17;;;;;;;1.58;0.60;;;;;;;22.73;37.32;100906.94;18360344;32;20089;-55
2022/07/12 05:44:22;;;;;;;1.52;0.50;;;;;;;22.67;37.03;100914.31;18360241;32;20112;-54
2022/07/12 05:54:25;;;;;;;2.42;0.45;;;;;;;23.10;36.50;100920.34;18359554;32;20116;-54
2022/07/12 06:04:30;;;;;;;1.05;0.60;;;;;;;23.28;35.40;100925.78;18357965;32;20098;-55
2022/07/12 06:14:33;;;;;;;0.93;0.70;;;;;;;23.36;36.32;100914.75;18356989;32;20105;-55
2022/07/12 06:24:38;;;;;;;1.45;0.62;;;;;;;23.63;35.51;100906.34;18355869;32;20675;-54
2022/07/12 06:34:41;;;;;;;1.17;0.50;;;;;;;23.81;34.90;100923.25;18357323;32;20116;-54
2022/07/12 06:44:45;;;;;;;0.40;0.40;;;;;;;23.76;34.86;100910.16;18358937;32;20115;-54
2022/07/12 06:54:49;;;;;;;2.03;0.60;;;;;;;24.21;33.38;100907.03;18355259;32;20136;-55
2022/07/12 07:04:53;;;;;;;3.22;0.50;;;;;;;24.23;33.63;100908.69;18354255;32;20108;-55
2022/07/12 07:14:57;;;;;;;1.20;0.70;;;;;;;24.70;32.75;100911.59;18357307;32;20123;-54
2022/07/12 07:25:01;;;;;;;1.00;0.50;;;;;;;25.21;32.01;100906.19;18355688;32;20104;-54
2022/07/12 07:35:06;;;;;;;1.25;0.60;;;;;;;25.85;30.62;100899.91;18355942;32;20629;-55
2022/07/12 07:45:11;;;;;;;0.70;0.50;;;;;;;25.95;30.85;100894.91;18355469;32;20392;-54
2022/07/12 07:55:19;;;;;;;0.73;0.50;;;;;;;26.48;30.03;100894.44;18354644;31;20120;-55
2022/07/12 08:05:24;;;;;;;1.73;0.50;;;;;;;26.23;29.61;100895.97;18353911;32;20388;-54
2022/07/12 08:15:32;;;;;;;1.95;0.60;;;;;;;26.26;29.61;100897.56;18353624;32;20090;-55
2022/07/12 08:25:36;;;;;;;1.73;0.73;;;;;;;26.52;30.06;100895.97;18354175;32;20112;-54
2022/07/12 08:35:40;;;;;;;0.60;0.40;;;;;;;27.18;28.91;100898.13;18358072;32;20089;-54
2022/07/12 08:45:44;;;;;;;1.67;0.50;;;;;;;27.03;28.23;100893.75;18362326;32;20081;-54
2022/07/12 08:55:48;;;;;;;1.08;0.60;;;;;;;27.43;27.84;100891.19;18361647;32;20162;-55
2022/07/12 09:05:54;;;;;;;2.37;0.60;;;;;;;26.91;27.91;100884.72;18361325;32;20090;-54
2022/07/12 09:16:13;;;;;;;1.73;0.52;;;;;;;27.26;28.03;100878.88;18412440;31;20452;-55
2022/07/12 09:26:18;;;;;;;0.95;0.50;;;;;;;27.42;27.00;100868.88;18361035;32;20086;-54
2022/07/12 09:36:25;;;;;;;1.05;0.50;;;;;;;28.57;27.03;100865.62;18360371;32;20162;-55
2022/07/12 09:46:29;;;;;;;1.55;0.50;;;;;;;28.62;25.93;100863.47;18360921;32;20101;-55
2022/07/12 09:56:36;;;;;;;1.08;0.50;;;;;;;28.40;26.82;100853.38;18359534;31;20089;-54
2022/07/12 10:06:41;;;;;;;1.23;0.50;;;;;;;28.00;26.83;100848.97;18359322;32;20222;-55
2022/07/12 10:16:46;;;;;;;0.77;0.60;;;;;;;27.83;27.25;100845.62;18411932;31;20137;-55
2022/07/12 10:26:50;;;;;;;0.30;0.30;;;;;;;28.12;26.98;100839.19;18358648;32;20397;-54
2022/07/12 10:37:16;;;;;;;0.87;0.30;;;;;;;29.24;22.92;100819.69;18358095;32;20115;-54
2022/07/12 10:47:22;;;;;;;0.20;0.20;;;;;;;29.00;21.98;100824.09;18358759;32;20111;-54
2022/07/12 10:57:39;;;;;;;2.15;0.37;;;;;;;28.63;23.20;100816.00;18356814;32;20095;-54
2022/07/12 11:07:44;;;;;;;1.10;0.45;;;;;;;29.37;23.29;100820.47;18356605;32;20112;-54
2022/07/12 11:17:47;;;;;;;0.75;0.35;;;;;;;29.92;21.77;100809.16;18409493;31;20097;-55
2022/07/12 11:27:52;;;;;;;1.45;0.50;;;;;;;29.55;22.55;100820.94;18354922;32;20105;-53
2022/07/12 11:37:57;;;;;;;0.65;0.40;;;;;;;29.45;22.57;100810.03;18355507;32;20789;-54
2022/07/12 11:48:05;;;;;;;0.93;0.30;;;;;;;30.32;21.47;100789.03;18409125;31;20109;-54
2022/07/12 11:58:08;;;;;;;1.02;0.30;;;;;;;30.77;19.67;100788.16;18350810;32;20128;-54
2022/07/12 12:08:14;;;;;;;0.85;0.50;;;;;;;29.74;21.16;100806.09;18404743;31;20112;-56
2022/07/12 12:18:28;;;;;;;1.33;0.40;;;;;;;29.99;21.01;100777.25;18362369;32;20123;-54
2022/07/12 12:28:46;;;;;;;1.20;0.40;;;;;;;30.64;18.44;100773.91;18360804;32;20145;-54
2022/07/12 12:38:51;;;;;;;0.65;0.20;;;;;;;31.10;17.88;100763.91;18413376;31;20101;-54
2022/07/12 12:48:55;;;;;;;0.62;0.30;;;;;;;31.56;17.73;100757.31;18359667;31;20101;-55
2022/07/12 12:58:59;;;;;;;0.30;0.30;;;;;;;31.65;17.20;100749.44;18358237;32;20633;-56
2022/07/12 13:09:03;;;;;;;1.37;0.60;;;;;;;32.22;16.86;100752.56;18355511;32;20118;-55
2022/07/12 13:19:07;;;;;;;1.75;0.30;;;;;;;32.09;17.19;100743.84;18412383;31;20111;-54
2022/07/12 13:29:13;;;;;;;0.82;0.40;;;;;;;31.83;16.22;100741.59;18357808;32;20130;-55
2022/07/12 13:49:38;;;;;;;1.40;0.50;;;;;;;29.75;18.73;100746.75;18411877;31;20101;-54
2022/07/12 13:59:41;;;;;;;0.50;0.32;;;;;;;29.73;19.39;100753.22;18358213;32;20159;-54
2022/07/12 14:09:46;;;;;;;0.45;0.30;;;;;;;28.99;20.04;100746.25;18406432;31;20093;-56
2022/07/12 14:19:49;;;;;;;1.00;0.40;;;;;;;29.55;20.04;100750.16;18354573;32;20416;-54
2022/07/12 14:29:54;;;;;;;0.40;0.30;;;;;;;30.08;19.32;100738.03;18381245;31;20098;-55
2022/07/12 14:39:57;;;;;;;0.60;0.30;;;;;;;30.28;18.11;100744.47;18408960;31;20116;-55
2022/07/12 14:50:04;;;;;;;1.25;0.50;;;;;;;30.08;18.23;100749.63;18354278;32;20120;-54
2022/07/12 15:00:10;;;;;;;0.75;0.37;;;;;;;29.92;17.15;100749.97;18363714;31;20153;-55
2022/07/12 15:10:15;;;;;;;1.65;0.30;;;;;;;29.65;17.58;100743.09;18624804;31;20095;-54
2022/07/12 15:20:18;;;;;;;1.45;0.30;;;;;;;29.89;17.92;100734.06;18611115;31;20180;-54
2022/07/12 15:30:23;;;;;;;0.43;0.30;;;;;;;29.87;17.36;100723.41;18554297;31;20124;-55
2022/07/12 15:40:26;;;;;;;0.20;0.20;;;;;;;29.90;18.49;100723.16;18352544;31;20099;-55
2022/07/12 15:50:31;;;;;;;0.68;0.30;;;;;;;29.45;18.69;100717.72;18354173;32;20140;-54
2022/07/12 16:00:34;;;;;;;0.43;0.30;;;;;;;29.46;18.63;100728.37;18353251;32;20116;-55
2022/07/12 16:10:38;;;;;;;0.75;0.22;;;;;;;29.10;19.15;100732.88;18352478;32;20097;-54
2022/07/12 16:20:42;;;;;;;1.92;0.40;;;;;;;29.12;19.18;100746.19;18352249;32;20101;-55
2022/07/12 16:30:46;;;;;;;0.30;0.30;;;;;;;28.72;19.25;100736.56;18349131;32;20186;-54
2022/07/12 16:40:50;;;;;;;0.40;0.40;;;;;;;28.64;20.79;100751.41;18352718;32;20093;-54
2022/07/12 17:01:11;;;;;;;1.33;0.40;;;;;;;28.40;22.73;100754.06;18363797;31;20101;-54
2022/07/12 17:11:16;;;;;;;1.27;0.30;;;;;;;28.13;23.93;100757.75;18414564;31;20094;-54
2022/07/12 17:21:20;;;;;;;0.55;0.50;;;;;;;27.67;24.80;100761.81;18361379;32;20101;-54
2022/07/12 17:31:25;;;;;;;1.48;0.60;;;;;;;27.35;25.44;100767.53;18360727;32;20717;-54
2022/07/12 17:41:28;;;;;;;0.80;0.57;;;;;;;27.16;25.48;100776.81;18361448;32;20161;-54
2022/07/12 17:51:33;;;;;;;0.93;0.57;;;;;;;27.16;25.71;100782.16;18359610;32;20121;-54
2022/07/12 18:01:36;;;;;;;1.30;0.40;;;;;;;26.90;26.02;100790.09;18538461;31;20096;-55
2022/07/12 18:22:01;;;;;;;1.25;0.50;;;;;;;26.50;27.59;100777.41;18628374;31;20092;-55
2022/07/12 18:32:07;;;;;;;0.93;0.50;;;;;;;26.33;27.48;100783.84;18626538;31;20096;-55
2022/07/12 18:42:11;;;;;;;4.37;0.80;;;;;;;25.96;28.25;100797.66;18627932;31;20157;-55
2022/07/12 18:52:16;;;;;;;3.58;0.90;;;;;;;25.71;28.89;100803.66;18626410;31;20106;-55
2022/07/12 19:02:19;;;;;;;3.25;0.70;;;;;;;25.52;30.09;100818.09;18427385;31;20141;-55
2022/07/12 19:12:23;;;;;;;2.50;0.80;;;;;;;25.24;29.62;100822.34;18356890;31;20112;-55
2022/07/12 19:22:27;;;;;;;1.70;0.70;;;;;;;24.93;30.07;100838.28;18356202;32;20157;-56
2022/07/12 19:32:32;;;;;;;2.75;0.57;;;;;;;24.74;30.38;100853.59;18356073;32;20101;-56
2022/07/12 19:42:35;;;;;;;1.08;0.50;;;;;;;24.64;30.40;100845.19;18350697;32;20487;-56
2022/07/12 19:52:41;;;;;;;2.60;0.80;;;;;;;24.58;30.01;100872.25;18317039;31;20091;-56
2022/07/12 20:02:45;;;;;;;1.05;0.50;;;;;;;24.34;31.09;100869.94;18288495;32;20090;-56
2022/07/12 20:12:50;;;;;;;2.22;0.47;;;;;;;23.85;33.25;100874.16;18288783;31;20125;-56
2022/07/12 20:22:54;;;;;;;0.65;0.60;;;;;;;23.00;35.09;100881.78;18301509;31;20468;-56
2022/07/12 20:43:21;;;;;;;2.12;0.60;;;;;;;21.72;37.83;100892.62;18626636;31;20367;-56
2022/07/12 20:53:26;;;;;;;1.70;1.30;;;;;;;21.13;39.87;100900.19;18458352;31;20082;-56
2022/07/12 21:03:29;;;;;;;3.42;1.00;;;;;;;20.88;40.32;100905.59;18413167;31;20103;-56
2022/07/12 21:13:34;;;;;;;1.23;0.80;;;;;;;20.58;40.80;100919.03;18361208;32;20377;-56
2022/07/12 21:23:37;;;;;;;1.33;0.80;;;;;;;20.58;40.78;100909.28;18412502;31;20093;-56
2022/07/12 21:33:42;;;;;;;0.70;0.70;;;;;;;20.35;41.74;100915.41;18356584;31;20141;-56
2022/07/12 21:43:46;;;;;;;1.67;0.80;;;;;;;20.21;42.57;100913.25;18355771;32;20218;-56
2022/07/12 21:53:50;;;;;;;1.87;0.85;;;;;;;20.10;42.80;100913.59;18357244;32;20387;-56
2022/07/12 22:03:54;;;;;;;1.40;1.00;;;;;;;19.78;43.50;100908.41;18359357;32;20107;-56
2022/07/12 22:13:59;;;;;;;1.80;0.82;;;;;;;19.53;44.34;100895.97;18360159;32;20141;-55
2022/07/12 22:24:02;;;;;;;1.95;0.95;;;;;;;19.82;44.67;100902.13;18359042;32;20144;-55
2022/07/12 22:34:06;;;;;;;3.10;0.95;;;;;;;19.76;44.17;100907.63;18358679;32;20121;-55
2022/07/12 22:44:10;;;;;;;1.48;0.70;;;;;;;20.16;42.83;100897.50;18358336;32;20116;-56
2022/07/12 22:54:14;;;;;;;1.12;0.70;;;;;;;20.61;40.14;100903.88;18357297;32;20108;-55
2022/07/12 23:04:17;;;;;;;0.80;0.40;;;;;;;21.38;38.38;100898.37;18357378;32;20116;-55
2022/07/12 23:14:22;;;;;;;1.45;0.65;;;;;;;21.78;37.10;100895.94;18356186;32;20470;-56
2022/07/12 23:24:25;;;;;;;0.80;0.75;;;;;;;21.84;38.54;100890.38;18354605;32;20093;-55
2022/07/12 23:34:30;;;;;;;2.12;0.80;;;;;;;21.60;39.85;100893.94;18356012;32;20138;-55
2022/07/12 23:44:33;;;;;;;0.70;0.70;;;;;;;20.86;41.04;100902.13;18355586;32;20107;-56
2022/07/12 23:54:37;;;;;;;2.25;0.88;;;;;;;20.32;42.01;100902.25;18354884;32;20392;-55
